sensor_id;sensor_type;location;lat;lon;timestamp;temperature;humidity
23403;DHT22;11874;48.228;11.684;2022-09-06T00:02:31;20.30;99.90
23403;DHT22;11874;48.228;11.684;2022-09-06T00:04:59;20.30;99.90
23403;DHT22;11874;48.228;11.684;2022-09-06T00:07:27;20.20;99.90
23403;DHT22;11874;48.228;11.684;2022-09-06T00:09:54;20.40;99.90
23403;DHT22;11874;48.228;11.684;2022-09-06T00:12:23;20.20;99.90
23403;DHT22;11874;48.228;11.684;2022-09-06T00:14:51;20.20;99.90
23403;DHT22;11874;48.228;11.684;2022-09-06T00:17:19;20.10;99.90
23403;DHT22;11874;48.228;11.684;2022-09-06T00:19:48;20.10;99.90
23403;DHT22;11874;48.228;11.684;2022-09-06T00:22:16;20.10;99.90
23403;DHT22;11874;48.228;11.684;2022-09-06T00:24:43;20.10;99.90
23403;DHT22;11874;48.228;11.684;2022-09-06T00:27:11;20.20;99.90
23403;DHT22;11874;48.228;11.684;2022-09-06T00:29:39;20.00;99.90
23403;DHT22;11874;48.228;11.684;2022-09-06T00:32:06;20.00;99.90
23403;DHT22;11874;48.228;11.684;2022-09-06T00:34:34;20.00;99.90
23403;DHT22;11874;48.228;11.684;2022-09-06T00:37:03;20.00;99.90
23403;DHT22;11874;48.228;11.684;2022-09-06T00:39:31;20.00;99.90
23403;DHT22;11874;48.228;11.684;2022-09-06T00:41:59;19.90;99.90
23403;DHT22;11874;48.228;11.684;2022-09-06T00:44:26;19.90;99.90
23403;DHT22;11874;48.228;11.684;2022-09-06T00:46:54;19.90;99.90
23403;DHT22;11874;48.228;11.684;2022-09-06T00:49:23;19.90;99.90
23403;DHT22;11874;48.228;11.684;2022-09-06T00:51:52;19.90;99.90
23403;DHT22;11874;48.228;11.684;2022-09-06T00:54:23;19.90;99.90
23403;DHT22;11874;48.228;11.684;2022-09-06T00:56:51;19.90;99.90
23403;DHT22;11874;48.228;11.684;2022-09-06T00:59:19;19.90;99.90
23403;DHT22;11874;48.228;11.684;2022-09-06T01:01:47;19.90;99.90
23403;DHT22;11874;48.228;11.684;2022-09-06T01:04:15;19.80;99.90
23403;DHT22;11874;48.228;11.684;2022-09-06T01:06:46;19.80;99.90
23403;DHT22;11874;48.228;11.684;2022-09-06T01:09:18;19.80;99.90
23403;DHT22;11874;48.228;11.684;2022-09-06T01:11:52;19.80;99.90
23403;DHT22;11874;48.228;11.684;2022-09-06T01:14:26;19.80;99.90
23403;DHT22;11874;48.228;11.684;2022-09-06T01:16:58;19.70;99.90
23403;DHT22;11874;48.228;11.684;2022-09-06T01:19:31;19.70;99.90
23403;DHT22;11874;48.228;11.684;2022-09-06T01:22:08;19.70;99.90
23403;DHT22;11874;48.228;11.684;2022-09-06T01:24:58;19.70;99.90
23403;DHT22;11874;48.228;11.684;2022-09-06T01:27:48;19.60;99.90
23403;DHT22;11874;48.228;11.684;2022-09-06T01:30:17;19.60;99.90
23403;DHT22;11874;48.228;11.684;2022-09-06T01:32:48;19.60;99.90
23403;DHT22;11874;48.228;11.684;2022-09-06T01:35:19;19.60;99.90
23403;DHT22;11874;48.228;11.684;2022-09-06T01:37:52;19.60;99.90
23403;DHT22;11874;48.228;11.684;2022-09-06T01:40:20;19.60;99.90
23403;DHT22;11874;48.228;11.684;2022-09-06T01:42:49;19.60;99.90
23403;DHT22;11874;48.228;11.684;2022-09-06T01:45:19;19.60;99.90
23403;DHT22;11874;48.228;11.684;2022-09-06T01:47:53;19.60;99.90
23403;DHT22;11874;48.228;11.684;2022-09-06T01:50:34;19.60;99.90
23403;DHT22;11874;48.228;11.684;2022-09-06T01:53:08;19.60;99.90
23403;DHT22;11874;48.228;11.684;2022-09-06T01:55:38;19.60;99.90
23403;DHT22;11874;48.228;11.684;2022-09-06T01:58:16;19.50;99.90
23403;DHT22;11874;48.228;11.684;2022-09-06T02:00:50;19.50;99.90
23403;DHT22;11874;48.228;11.684;2022-09-06T02:03:23;19.50;99.90
23403;DHT22;11874;48.228;11.684;2022-09-06T02:05:53;19.50;99.90
23403;DHT22;11874;48.228;11.684;2022-09-06T02:08:23;19.50;99.90
23403;DHT22;11874;48.228;11.684;2022-09-06T02:10:53;19.50;99.90
23403;DHT22;11874;48.228;11.684;2022-09-06T02:13:24;19.50;99.90
23403;DHT22;11874;48.228;11.684;2022-09-06T02:15:54;19.50;99.90
23403;DHT22;11874;48.228;11.684;2022-09-06T02:18:23;19.50;99.90
23403;DHT22;11874;48.228;11.684;2022-09-06T02:20:54;19.50;99.90
23403;DHT22;11874;48.228;11.684;2022-09-06T02:23:23;19.40;99.90
23403;DHT22;11874;48.228;11.684;2022-09-06T02:25:53;19.40;99.90
23403;DHT22;11874;48.228;11.684;2022-09-06T02:28:24;19.50;99.90
23403;DHT22;11874;48.228;11.684;2022-09-06T02:30:52;19.40;99.90
23403;DHT22;11874;48.228;11.684;2022-09-06T02:33:23;19.40;99.90
23403;DHT22;11874;48.228;11.684;2022-09-06T02:35:52;19.30;99.90
23403;DHT22;11874;48.228;11.684;2022-09-06T02:38:22;19.50;99.90
23403;DHT22;11874;48.228;11.684;2022-09-06T02:40:51;19.20;99.90
23403;DHT22;11874;48.228;11.684;2022-09-06T02:43:19;19.30;99.90
23403;DHT22;11874;48.228;11.684;2022-09-06T02:45:48;19.20;99.90
23403;DHT22;11874;48.228;11.684;2022-09-06T02:48:16;19.20;99.90
23403;DHT22;11874;48.228;11.684;2022-09-06T02:50:43;19.30;99.90
23403;DHT22;11874;48.228;11.684;2022-09-06T02:53:12;19.20;99.90
23403;DHT22;11874;48.228;11.684;2022-09-06T02:55:40;19.20;99.90
23403;DHT22;11874;48.228;11.684;2022-09-06T02:58:08;19.20;99.90
23403;DHT22;11874;48.228;11.684;2022-09-06T03:00:36;19.20;99.90
23403;DHT22;11874;48.228;11.684;2022-09-06T03:03:06;19.20;99.90
23403;DHT22;11874;48.228;11.684;2022-09-06T03:05:33;19.20;99.90
23403;DHT22;11874;48.228;11.684;2022-09-06T03:08:01;19.20;99.90
23403;DHT22;11874;48.228;11.684;2022-09-06T03:10:29;19.20;99.90
23403;DHT22;11874;48.228;11.684;2022-09-06T03:12:57;19.10;99.90
23403;DHT22;11874;48.228;11.684;2022-09-06T03:15:25;19.10;99.90
23403;DHT22;11874;48.228;11.684;2022-09-06T03:17:55;19.10;99.90
23403;DHT22;11874;48.228;11.684;2022-09-06T03:20:25;19.10;99.90
23403;DHT22;11874;48.228;11.684;2022-09-06T03:22:52;19.10;99.90
23403;DHT22;11874;48.228;11.684;2022-09-06T03:25:20;19.10;99.90
23403;DHT22;11874;48.228;11.684;2022-09-06T03:27:48;19.10;99.90
23403;DHT22;11874;48.228;11.684;2022-09-06T03:30:15;19.10;99.90
23403;DHT22;11874;48.228;11.684;2022-09-06T03:32:43;19.00;99.90
23403;DHT22;11874;48.228;11.684;2022-09-06T03:35:11;19.10;99.90
23403;DHT22;11874;48.228;11.684;2022-09-06T03:37:40;19.10;99.90
23403;DHT22;11874;48.228;11.684;2022-09-06T03:40:08;19.00;99.90
23403;DHT22;11874;48.228;11.684;2022-09-06T03:42:37;19.00;99.90
23403;DHT22;11874;48.228;11.684;2022-09-06T03:45:05;19.00;99.90
23403;DHT22;11874;48.228;11.684;2022-09-06T03:47:33;19.00;99.90
23403;DHT22;11874;48.228;11.684;2022-09-06T03:50:00;19.00;99.90
23403;DHT22;11874;48.228;11.684;2022-09-06T03:52:28;19.00;99.90
23403;DHT22;11874;48.228;11.684;2022-09-06T03:54:57;18.90;99.90
23403;DHT22;11874;48.228;11.684;2022-09-06T03:57:25;18.90;99.90
23403;DHT22;11874;48.228;11.684;2022-09-06T03:59:52;18.90;99.90
23403;DHT22;11874;48.228;11.684;2022-09-06T04:02:20;18.90;99.90
23403;DHT22;11874;48.228;11.684;2022-09-06T04:04:48;18.90;99.90
23403;DHT22;11874;48.228;11.684;2022-09-06T04:07:16;18.90;99.90
23403;DHT22;11874;48.228;11.684;2022-09-06T04:09:43;18.90;99.90
23403;DHT22;11874;48.228;11.684;2022-09-06T04:12:12;19.10;99.90
23403;DHT22;11874;48.228;11.684;2022-09-06T04:14:40;18.90;99.90
23403;DHT22;11874;48.228;11.684;2022-09-06T04:17:08;18.80;99.90
23403;DHT22;11874;48.228;11.684;2022-09-06T04:19:36;18.80;99.90
23403;DHT22;11874;48.228;11.684;2022-09-06T04:22:03;18.80;99.90
23403;DHT22;11874;48.228;11.684;2022-09-06T04:24:31;18.80;99.90
23403;DHT22;11874;48.228;11.684;2022-09-06T04:26:59;18.70;99.90
23403;DHT22;11874;48.228;11.684;2022-09-06T04:29:28;18.70;99.90
23403;DHT22;11874;48.228;11.684;2022-09-06T04:31:55;18.70;99.90
23403;DHT22;11874;48.228;11.684;2022-09-06T04:34:23;18.70;99.90
23403;DHT22;11874;48.228;11.684;2022-09-06T04:36:51;18.70;99.90
23403;DHT22;11874;48.228;11.684;2022-09-06T04:39:19;18.70;99.90
23403;DHT22;11874;48.228;11.684;2022-09-06T04:41:46;18.70;99.90
23403;DHT22;11874;48.228;11.684;2022-09-06T04:44:14;18.70;99.90
23403;DHT22;11874;48.228;11.684;2022-09-06T04:46:43;18.70;99.90
23403;DHT22;11874;48.228;11.684;2022-09-06T04:49:11;18.70;99.90
23403;DHT22;11874;48.228;11.684;2022-09-06T04:51:38;18.70;99.90
23403;DHT22;11874;48.228;11.684;2022-09-06T04:54:06;18.70;99.90
23403;DHT22;11874;48.228;11.684;2022-09-06T04:56:34;18.70;99.90
23403;DHT22;11874;48.228;11.684;2022-09-06T04:59:01;18.70;99.90
23403;DHT22;11874;48.228;11.684;2022-09-06T05:01:29;18.70;99.90
23403;DHT22;11874;48.228;11.684;2022-09-06T05:03:58;18.70;99.90
23403;DHT22;11874;48.228;11.684;2022-09-06T05:06:26;18.70;99.90
23403;DHT22;11874;48.228;11.684;2022-09-06T05:08:54;18.80;99.90
23403;DHT22;11874;48.228;11.684;2022-09-06T05:11:22;18.80;99.90
23403;DHT22;11874;48.228;11.684;2022-09-06T05:13:49;18.80;99.90
23403;DHT22;11874;48.228;11.684;2022-09-06T05:16:17;18.80;99.90
23403;DHT22;11874;48.228;11.684;2022-09-06T05:18:45;18.80;99.90
23403;DHT22;11874;48.228;11.684;2022-09-06T05:21:14;18.90;99.90
23403;DHT22;11874;48.228;11.684;2022-09-06T05:23:42;18.80;99.90
23403;DHT22;11874;48.228;11.684;2022-09-06T05:26:10;18.80;99.90
23403;DHT22;11874;48.228;11.684;2022-09-06T05:28:37;18.80;99.90
23403;DHT22;11874;48.228;11.684;2022-09-06T05:31:06;18.90;99.90
23403;DHT22;11874;48.228;11.684;2022-09-06T05:33:34;18.90;99.90
23403;DHT22;11874;48.228;11.684;2022-09-06T05:36:01;18.90;99.90
23403;DHT22;11874;48.228;11.684;2022-09-06T05:38:30;18.90;99.90
23403;DHT22;11874;48.228;11.684;2022-09-06T05:40:59;18.90;99.90
23403;DHT22;11874;48.228;11.684;2022-09-06T05:43:26;18.90;99.90
23403;DHT22;11874;48.228;11.684;2022-09-06T05:45:54;18.90;99.90
23403;DHT22;11874;48.228;11.684;2022-09-06T05:48:22;18.90;99.90
23403;DHT22;11874;48.228;11.684;2022-09-06T05:50:57;18.90;99.90
23403;DHT22;11874;48.228;11.684;2022-09-06T05:53:25;19.00;99.90
23403;DHT22;11874;48.228;11.684;2022-09-06T05:55:54;19.00;99.90
23403;DHT22;11874;48.228;11.684;2022-09-06T05:58:22;18.90;99.90
23403;DHT22;11874;48.228;11.684;2022-09-06T06:00:50;19.00;99.90
23403;DHT22;11874;48.228;11.684;2022-09-06T06:03:17;19.00;99.90
23403;DHT22;11874;48.228;11.684;2022-09-06T06:05:45;19.00;99.90
23403;DHT22;11874;48.228;11.684;2022-09-06T06:08:13;19.00;99.90
23403;DHT22;11874;48.228;11.684;2022-09-06T06:10:41;19.00;99.90
23403;DHT22;11874;48.228;11.684;2022-09-06T06:13:10;19.00;99.90
23403;DHT22;11874;48.228;11.684;2022-09-06T06:15:38;19.10;99.90
23403;DHT22;11874;48.228;11.684;2022-09-06T06:18:05;19.10;99.90
23403;DHT22;11874;48.228;11.684;2022-09-06T06:20:33;19.10;99.90
23403;DHT22;11874;48.228;11.684;2022-09-06T06:23:01;19.10;99.90
23403;DHT22;11874;48.228;11.684;2022-09-06T06:25:28;19.20;99.90
23403;DHT22;11874;48.228;11.684;2022-09-06T06:27:56;19.20;99.90
23403;DHT22;11874;48.228;11.684;2022-09-06T06:30:25;19.20;99.90
23403;DHT22;11874;48.228;11.684;2022-09-06T06:32:53;19.30;99.90
23403;DHT22;11874;48.228;11.684;2022-09-06T06:35:21;19.20;99.90
23403;DHT22;11874;48.228;11.684;2022-09-06T06:37:48;19.30;99.90
23403;DHT22;11874;48.228;11.684;2022-09-06T06:40:16;19.30;99.90
23403;DHT22;11874;48.228;11.684;2022-09-06T06:42:44;19.30;99.90
23403;DHT22;11874;48.228;11.684;2022-09-06T06:45:11;19.30;99.90
23403;DHT22;11874;48.228;11.684;2022-09-06T06:47:40;19.30;99.90
23403;DHT22;11874;48.228;11.684;2022-09-06T06:50:08;19.30;99.90
23403;DHT22;11874;48.228;11.684;2022-09-06T06:52:36;19.30;99.90
23403;DHT22;11874;48.228;11.684;2022-09-06T06:55:05;19.30;99.90
23403;DHT22;11874;48.228;11.684;2022-09-06T06:57:32;19.40;99.90
23403;DHT22;11874;48.228;11.684;2022-09-06T07:00:00;19.40;99.90
23403;DHT22;11874;48.228;11.684;2022-09-06T07:02:30;19.40;99.90
23403;DHT22;11874;48.228;11.684;2022-09-06T07:04:59;19.40;99.90
23403;DHT22;11874;48.228;11.684;2022-09-06T07:07:27;19.40;99.90
23403;DHT22;11874;48.228;11.684;2022-09-06T07:10:00;19.40;99.90
23403;DHT22;11874;48.228;11.684;2022-09-06T07:12:47;19.50;99.90
23403;DHT22;11874;48.228;11.684;2022-09-06T07:15:15;19.50;99.90
23403;DHT22;11874;48.228;11.684;2022-09-06T07:17:43;19.60;99.90
23403;DHT22;11874;48.228;11.684;2022-09-06T07:20:12;19.70;99.90
23403;DHT22;11874;48.228;11.684;2022-09-06T07:22:41;19.70;99.90
23403;DHT22;11874;48.228;11.684;2022-09-06T07:25:09;19.80;99.90
23403;DHT22;11874;48.228;11.684;2022-09-06T07:27:43;19.80;99.90
23403;DHT22;11874;48.228;11.684;2022-09-06T07:30:16;19.80;99.90
23403;DHT22;11874;48.228;11.684;2022-09-06T07:32:44;19.80;99.90
23403;DHT22;11874;48.228;11.684;2022-09-06T07:35:14;19.90;99.90
23403;DHT22;11874;48.228;11.684;2022-09-06T07:37:41;19.90;99.90
23403;DHT22;11874;48.228;11.684;2022-09-06T07:40:09;20.00;99.90
23403;DHT22;11874;48.228;11.684;2022-09-06T07:42:37;20.00;99.90
23403;DHT22;11874;48.228;11.684;2022-09-06T07:45:05;20.00;99.90
23403;DHT22;11874;48.228;11.684;2022-09-06T07:47:33;20.00;99.90
23403;DHT22;11874;48.228;11.684;2022-09-06T07:50:23;20.10;99.90
23403;DHT22;11874;48.228;11.684;2022-09-06T07:53:10;20.10;99.90
23403;DHT22;11874;48.228;11.684;2022-09-06T07:55:47;20.10;99.90
23403;DHT22;11874;48.228;11.684;2022-09-06T07:58:14;20.10;99.90
23403;DHT22;11874;48.228;11.684;2022-09-06T08:00:42;20.20;99.90
23403;DHT22;11874;48.228;11.684;2022-09-06T08:03:10;20.10;99.90
23403;DHT22;11874;48.228;11.684;2022-09-06T08:05:39;20.30;99.90
23403;DHT22;11874;48.228;11.684;2022-09-06T08:08:27;20.20;99.90
23403;DHT22;11874;48.228;11.684;2022-09-06T08:11:15;20.30;99.90
23403;DHT22;11874;48.228;11.684;2022-09-06T08:13:43;20.20;99.90
23403;DHT22;11874;48.228;11.684;2022-09-06T08:16:11;20.20;99.90
23403;DHT22;11874;48.228;11.684;2022-09-06T08:18:39;20.30;99.90
23403;DHT22;11874;48.228;11.684;2022-09-06T08:21:09;20.30;99.90
23403;DHT22;11874;48.228;11.684;2022-09-06T08:23:38;20.30;99.90
23403;DHT22;11874;48.228;11.684;2022-09-06T08:26:08;20.30;99.90
23403;DHT22;11874;48.228;11.684;2022-09-06T08:28:35;20.30;99.90
23403;DHT22;11874;48.228;11.684;2022-09-06T08:31:03;20.40;99.90
23403;DHT22;11874;48.228;11.684;2022-09-06T08:33:31;20.30;99.90
23403;DHT22;11874;48.228;11.684;2022-09-06T08:35:59;20.40;99.90
23403;DHT22;11874;48.228;11.684;2022-09-06T08:38:28;20.40;99.90
23403;DHT22;11874;48.228;11.684;2022-09-06T08:41:04;20.40;99.90
23403;DHT22;11874;48.228;11.684;2022-09-06T08:43:32;20.40;99.90
23403;DHT22;11874;48.228;11.684;2022-09-06T08:46:00;20.50;99.90
23403;DHT22;11874;48.228;11.684;2022-09-06T08:48:30;20.50;99.90
23403;DHT22;11874;48.228;11.684;2022-09-06T08:51:03;20.50;99.90
23403;DHT22;11874;48.228;11.684;2022-09-06T08:53:35;20.50;99.90
23403;DHT22;11874;48.228;11.684;2022-09-06T08:56:09;20.50;99.90
23403;DHT22;11874;48.228;11.684;2022-09-06T08:58:42;20.50;99.90
23403;DHT22;11874;48.228;11.684;2022-09-06T09:01:15;20.60;99.90
23403;DHT22;11874;48.228;11.684;2022-09-06T09:03:43;20.60;99.90
23403;DHT22;11874;48.228;11.684;2022-09-06T09:06:12;20.60;99.90
23403;DHT22;11874;48.228;11.684;2022-09-06T09:08:42;20.60;99.90
23403;DHT22;11874;48.228;11.684;2022-09-06T09:11:14;20.60;99.90
23403;DHT22;11874;48.228;11.684;2022-09-06T09:13:48;20.60;99.90
23403;DHT22;11874;48.228;11.684;2022-09-06T09:16:19;20.70;99.90
23403;DHT22;11874;48.228;11.684;2022-09-06T09:18:48;20.70;99.90
23403;DHT22;11874;48.228;11.684;2022-09-06T09:21:17;20.70;99.90
23403;DHT22;11874;48.228;11.684;2022-09-06T09:23:49;20.70;99.90
23403;DHT22;11874;48.228;11.684;2022-09-06T09:26:18;20.70;99.90
23403;DHT22;11874;48.228;11.684;2022-09-06T09:29:06;20.70;99.90
23403;DHT22;11874;48.228;11.684;2022-09-06T09:31:35;20.70;99.90
23403;DHT22;11874;48.228;11.684;2022-09-06T09:34:09;20.70;99.90
23403;DHT22;11874;48.228;11.684;2022-09-06T09:36:36;20.70;99.90
23403;DHT22;11874;48.228;11.684;2022-09-06T09:39:09;20.70;99.90
23403;DHT22;11874;48.228;11.684;2022-09-06T09:41:37;20.70;99.90
23403;DHT22;11874;48.228;11.684;2022-09-06T09:44:08;20.70;99.90
23403;DHT22;11874;48.228;11.684;2022-09-06T09:46:36;20.70;99.90
23403;DHT22;11874;48.228;11.684;2022-09-06T09:49:06;20.70;99.90
23403;DHT22;11874;48.228;11.684;2022-09-06T09:51:35;20.80;99.90
23403;DHT22;11874;48.228;11.684;2022-09-06T09:54:04;20.80;99.90
23403;DHT22;11874;48.228;11.684;2022-09-06T09:56:35;20.80;99.90
23403;DHT22;11874;48.228;11.684;2022-09-06T09:59:05;20.90;99.90
23403;DHT22;11874;48.228;11.684;2022-09-06T10:01:34;20.90;99.90
23403;DHT22;11874;48.228;11.684;2022-09-06T10:04:05;20.90;99.90
23403;DHT22;11874;48.228;11.684;2022-09-06T10:07:05;21.00;99.90
23403;DHT22;11874;48.228;11.684;2022-09-06T10:09:38;21.00;99.90
23403;DHT22;11874;48.228;11.684;2022-09-06T10:12:08;21.10;99.90
23403;DHT22;11874;48.228;11.684;2022-09-06T10:14:40;21.10;99.90
23403;DHT22;11874;48.228;11.684;2022-09-06T10:17:08;21.10;99.90
23403;DHT22;11874;48.228;11.684;2022-09-06T10:19:44;21.20;99.90
23403;DHT22;11874;48.228;11.684;2022-09-06T10:22:28;21.20;99.90
23403;DHT22;11874;48.228;11.684;2022-09-06T10:27:54;21.30;99.90
23403;DHT22;11874;48.228;11.684;2022-09-06T10:30:42;21.30;99.90
23403;DHT22;11874;48.228;11.684;2022-09-06T10:33:16;21.30;99.90
23403;DHT22;11874;48.228;11.684;2022-09-06T10:35:47;21.40;99.90
23403;DHT22;11874;48.228;11.684;2022-09-06T10:38:18;21.40;99.90
23403;DHT22;11874;48.228;11.684;2022-09-06T10:40:52;21.40;99.90
23403;DHT22;11874;48.228;11.684;2022-09-06T10:43:24;21.50;99.90
23403;DHT22;11874;48.228;11.684;2022-09-06T10:45:56;21.50;99.90
23403;DHT22;11874;48.228;11.684;2022-09-06T10:48:25;21.50;99.90
23403;DHT22;11874;48.228;11.684;2022-09-06T10:50:55;21.50;99.90
23403;DHT22;11874;48.228;11.684;2022-09-06T10:53:27;21.60;99.90
23403;DHT22;11874;48.228;11.684;2022-09-06T10:55:59;21.60;99.90
23403;DHT22;11874;48.228;11.684;2022-09-06T10:58:30;21.70;99.90
23403;DHT22;11874;48.228;11.684;2022-09-06T11:01:25;21.70;99.90
23403;DHT22;11874;48.228;11.684;2022-09-06T11:03:54;21.70;99.90
23403;DHT22;11874;48.228;11.684;2022-09-06T11:06:33;21.70;99.90
23403;DHT22;11874;48.228;11.684;2022-09-06T11:09:06;21.80;99.90
23403;DHT22;11874;48.228;11.684;2022-09-06T11:11:37;21.80;99.90
23403;DHT22;11874;48.228;11.684;2022-09-06T11:14:10;21.80;99.90
23403;DHT22;11874;48.228;11.684;2022-09-06T11:16:40;21.80;99.90
23403;DHT22;11874;48.228;11.684;2022-09-06T11:19:11;21.80;99.90
23403;DHT22;11874;48.228;11.684;2022-09-06T11:24:31;21.90;99.90
23403;DHT22;11874;48.228;11.684;2022-09-06T11:27:03;21.90;99.90
23403;DHT22;11874;48.228;11.684;2022-09-06T11:29:33;21.90;99.90
23403;DHT22;11874;48.228;11.684;2022-09-06T11:32:02;21.90;99.90
23403;DHT22;11874;48.228;11.684;2022-09-06T11:34:50;21.90;99.90
23403;DHT22;11874;48.228;11.684;2022-09-06T11:37:22;22.00;99.90
23403;DHT22;11874;48.228;11.684;2022-09-06T11:40:00;22.00;99.90
23403;DHT22;11874;48.228;11.684;2022-09-06T11:43:07;22.00;99.90
23403;DHT22;11874;48.228;11.684;2022-09-06T11:45:41;22.10;99.90
23403;DHT22;11874;48.228;11.684;2022-09-06T11:51:03;22.20;99.90
23403;DHT22;11874;48.228;11.684;2022-09-06T11:53:33;22.20;99.90
23403;DHT22;11874;48.228;11.684;2022-09-06T11:56:14;22.30;99.90
23403;DHT22;11874;48.228;11.684;2022-09-06T11:58:49;22.30;99.90
23403;DHT22;11874;48.228;11.684;2022-09-06T12:01:36;22.40;99.90
23403;DHT22;11874;48.228;11.684;2022-09-06T12:04:05;22.40;99.90
23403;DHT22;11874;48.228;11.684;2022-09-06T12:06:35;22.50;99.90
23403;DHT22;11874;48.228;11.684;2022-09-06T12:11:52;22.50;99.90
23403;DHT22;11874;48.228;11.684;2022-09-06T12:14:28;22.50;99.90
23403;DHT22;11874;48.228;11.684;2022-09-06T12:19:54;22.70;99.90
23403;DHT22;11874;48.228;11.684;2022-09-06T12:25:15;22.80;99.90
23403;DHT22;11874;48.228;11.684;2022-09-06T12:27:49;22.80;99.90
23403;DHT22;11874;48.228;11.684;2022-09-06T12:30:29;22.90;99.90
23403;DHT22;11874;48.228;11.684;2022-09-06T12:32:57;23.00;99.90
23403;DHT22;11874;48.228;11.684;2022-09-06T12:35:28;23.00;99.90
23403;DHT22;11874;48.228;11.684;2022-09-06T12:38:21;23.00;99.90
23403;DHT22;11874;48.228;11.684;2022-09-06T12:40:49;23.10;99.90
23403;DHT22;11874;48.228;11.684;2022-09-06T12:43:21;23.10;99.90
23403;DHT22;11874;48.228;11.684;2022-09-06T12:45:49;23.20;99.90
23403;DHT22;11874;48.228;11.684;2022-09-06T12:48:24;23.30;99.90
23403;DHT22;11874;48.228;11.684;2022-09-06T12:51:00;23.30;99.90
23403;DHT22;11874;48.228;11.684;2022-09-06T12:53:28;23.50;99.90
23403;DHT22;11874;48.228;11.684;2022-09-06T12:56:04;23.50;99.90
23403;DHT22;11874;48.228;11.684;2022-09-06T12:58:32;23.60;99.90
23403;DHT22;11874;48.228;11.684;2022-09-06T13:01:02;23.60;99.90
23403;DHT22;11874;48.228;11.684;2022-09-06T13:03:30;23.60;99.90
23403;DHT22;11874;48.228;11.684;2022-09-06T13:06:03;23.70;99.90
23403;DHT22;11874;48.228;11.684;2022-09-06T13:08:33;23.70;99.90
23403;DHT22;11874;48.228;11.684;2022-09-06T13:11:06;23.70;99.90
23403;DHT22;11874;48.228;11.684;2022-09-06T13:13:35;23.60;99.90
23403;DHT22;11874;48.228;11.684;2022-09-06T13:16:03;23.70;99.90
23403;DHT22;11874;48.228;11.684;2022-09-06T13:18:32;23.70;99.90
23403;DHT22;11874;48.228;11.684;2022-09-06T13:21:01;23.70;99.90
23403;DHT22;11874;48.228;11.684;2022-09-06T13:23:38;23.70;99.90
23403;DHT22;11874;48.228;11.684;2022-09-06T13:26:06;23.80;99.90
23403;DHT22;11874;48.228;11.684;2022-09-06T13:28:34;23.80;99.90
23403;DHT22;11874;48.228;11.684;2022-09-06T13:31:05;23.80;99.90
23403;DHT22;11874;48.228;11.684;2022-09-06T13:33:34;23.90;99.90
23403;DHT22;11874;48.228;11.684;2022-09-06T13:36:07;23.90;99.90
23403;DHT22;11874;48.228;11.684;2022-09-06T13:38:39;24.00;99.90
23403;DHT22;11874;48.228;11.684;2022-09-06T13:43:55;24.20;99.90
23403;DHT22;11874;48.228;11.684;2022-09-06T13:46:23;24.30;99.90
23403;DHT22;11874;48.228;11.684;2022-09-06T13:48:52;24.80;99.90
23403;DHT22;11874;48.228;11.684;2022-09-06T13:51:20;25.10;99.90
23403;DHT22;11874;48.228;11.684;2022-09-06T13:53:49;25.30;99.90
23403;DHT22;11874;48.228;11.684;2022-09-06T13:56:17;25.50;99.90
23403;DHT22;11874;48.228;11.684;2022-09-06T13:58:45;25.70;99.90
23403;DHT22;11874;48.228;11.684;2022-09-06T14:01:12;26.00;99.90
23403;DHT22;11874;48.228;11.684;2022-09-06T14:03:40;26.40;99.90
23403;DHT22;11874;48.228;11.684;2022-09-06T14:06:08;27.00;99.00
23403;DHT22;11874;48.228;11.684;2022-09-06T14:08:36;27.40;97.70
23403;DHT22;11874;48.228;11.684;2022-09-06T14:11:26;27.40;97.00
23403;DHT22;11874;48.228;11.684;2022-09-06T14:13:53;27.10;97.10
23403;DHT22;11874;48.228;11.684;2022-09-06T14:16:21;26.70;97.40
23403;DHT22;11874;48.228;11.684;2022-09-06T14:18:49;26.50;97.50
23403;DHT22;11874;48.228;11.684;2022-09-06T14:21:17;26.20;97.70
23403;DHT22;11874;48.228;11.684;2022-09-06T14:23:46;25.80;98.10
23403;DHT22;11874;48.228;11.684;2022-09-06T14:26:16;25.60;98.40
23403;DHT22;11874;48.228;11.684;2022-09-06T14:28:47;25.50;98.80
23403;DHT22;11874;48.228;11.684;2022-09-06T14:31:15;25.70;99.60
23403;DHT22;11874;48.228;11.684;2022-09-06T14:33:44;26.10;99.80
23403;DHT22;11874;48.228;11.684;2022-09-06T14:36:12;26.50;98.90
23403;DHT22;11874;48.228;11.684;2022-09-06T14:38:41;26.80;98.30
23403;DHT22;11874;48.228;11.684;2022-09-06T14:41:09;26.90;98.20
23403;DHT22;11874;48.228;11.684;2022-09-06T14:43:37;27.10;97.90
23403;DHT22;11874;48.228;11.684;2022-09-06T14:46:07;27.20;97.50
23403;DHT22;11874;48.228;11.684;2022-09-06T14:48:35;27.30;97.40
23403;DHT22;11874;48.228;11.684;2022-09-06T14:51:08;27.30;96.60
23403;DHT22;11874;48.228;11.684;2022-09-06T14:53:38;27.30;97.00
23403;DHT22;11874;48.228;11.684;2022-09-06T14:56:06;27.40;96.40
23403;DHT22;11874;48.228;11.684;2022-09-06T14:58:34;27.50;96.40
23403;DHT22;11874;48.228;11.684;2022-09-06T15:01:08;27.50;96.60
23403;DHT22;11874;48.228;11.684;2022-09-06T15:03:37;27.50;96.10
23403;DHT22;11874;48.228;11.684;2022-09-06T15:06:05;27.50;95.90
23403;DHT22;11874;48.228;11.684;2022-09-06T15:08:33;27.30;96.00
23403;DHT22;11874;48.228;11.684;2022-09-06T15:11:01;27.20;96.10
23403;DHT22;11874;48.228;11.684;2022-09-06T15:13:29;27.10;96.30
23403;DHT22;11874;48.228;11.684;2022-09-06T15:15:57;27.00;96.50
23403;DHT22;11874;48.228;11.684;2022-09-06T15:18:26;26.90;96.80
23403;DHT22;11874;48.228;11.684;2022-09-06T15:20:54;26.90;96.70
23403;DHT22;11874;48.228;11.684;2022-09-06T15:23:22;26.90;96.80
23403;DHT22;11874;48.228;11.684;2022-09-06T15:25:51;26.90;96.80
23403;DHT22;11874;48.228;11.684;2022-09-06T15:28:19;26.90;96.90
23403;DHT22;11874;48.228;11.684;2022-09-06T15:30:47;26.90;97.00
23403;DHT22;11874;48.228;11.684;2022-09-06T15:33:15;26.90;96.90
23403;DHT22;11874;48.228;11.684;2022-09-06T15:35:48;26.90;96.80
23403;DHT22;11874;48.228;11.684;2022-09-06T15:38:19;26.70;96.80
23403;DHT22;11874;48.228;11.684;2022-09-06T15:40:47;26.60;96.80
23403;DHT22;11874;48.228;11.684;2022-09-06T15:43:18;26.50;97.00
23403;DHT22;11874;48.228;11.684;2022-09-06T15:45:47;26.50;97.20
23403;DHT22;11874;48.228;11.684;2022-09-06T15:48:15;26.50;97.00
23403;DHT22;11874;48.228;11.684;2022-09-06T15:50:43;26.40;97.10
23403;DHT22;11874;48.228;11.684;2022-09-06T15:53:18;26.30;96.90
23403;DHT22;11874;48.228;11.684;2022-09-06T15:55:46;26.20;96.80